sensor_id;sensor_type;location;lat;lon;timestamp;P1;durP1;ratioP1;P2;durP2;ratioP2
10458;SDS011;5277;48.722;8.736;2023-04-06T00:01:09;8.10;;;5.77;;
10458;SDS011;5277;48.722;8.736;2023-04-06T00:03:35;8.60;;;5.17;;
10458;SDS011;5277;48.722;8.736;2023-04-06T00:06:02;11.23;;;5.40;;
10458;SDS011;5277;48.722;8.736;2023-04-06T00:08:28;8.23;;;5.73;;
10458;SDS011;5277;48.722;8.736;2023-04-06T00:10:54;7.03;;;4.70;;
10458;SDS011;5277;48.722;8.736;2023-04-06T00:13:20;9.27;;;5.50;;
10458;SDS011;5277;48.722;8.736;2023-04-06T00:15:46;8.87;;;5.63;;
10458;SDS011;5277;48.722;8.736;2023-04-06T00:18:11;8.63;;;5.27;;
10458;SDS011;5277;48.722;8.736;2023-04-06T00:20:37;10.80;;;5.73;;
10458;SDS011;5277;48.722;8.736;2023-04-06T00:23:03;9.90;;;5.90;;
10458;SDS011;5277;48.722;8.736;2023-04-06T00:25:28;7.67;;;5.00;;
10458;SDS011;5277;48.722;8.736;2023-04-06T00:27:54;9.50;;;5.53;;
10458;SDS011;5277;48.722;8.736;2023-04-06T00:30:20;6.97;;;4.87;;
10458;SDS011;5277;48.722;8.736;2023-04-06T00:32:45;8.53;;;5.13;;
10458;SDS011;5277;48.722;8.736;2023-04-06T00:35:11;7.53;;;5.00;;
10458;SDS011;5277;48.722;8.736;2023-04-06T00:37:37;7.23;;;5.20;;
10458;SDS011;5277;48.722;8.736;2023-04-06T00:40:02;9.20;;;4.80;;
10458;SDS011;5277;48.722;8.736;2023-04-06T00:42:28;5.93;;;4.60;;
10458;SDS011;5277;48.722;8.736;2023-04-06T00:44:55;6.33;;;4.77;;
10458;SDS011;5277;48.722;8.736;2023-04-06T00:47:22;6.07;;;4.63;;
10458;SDS011;5277;48.722;8.736;2023-04-06T00:49:50;9.80;;;5.10;;
10458;SDS011;5277;48.722;8.736;2023-04-06T00:52:15;5.47;;;4.60;;
10458;SDS011;5277;48.722;8.736;2023-04-06T00:54:42;7.50;;;5.00;;
10458;SDS011;5277;48.722;8.736;2023-04-06T00:57:08;7.00;;;4.80;;
10458;SDS011;5277;48.722;8.736;2023-04-06T00:59:34;7.63;;;5.07;;
10458;SDS011;5277;48.722;8.736;2023-04-06T01:02:00;6.73;;;4.77;;
10458;SDS011;5277;48.722;8.736;2023-04-06T01:04:26;7.07;;;4.47;;
10458;SDS011;5277;48.722;8.736;2023-04-06T01:06:52;8.90;;;5.17;;
10458;SDS011;5277;48.722;8.736;2023-04-06T01:09:18;7.73;;;5.27;;
10458;SDS011;5277;48.722;8.736;2023-04-06T01:11:43;11.10;;;5.03;;
10458;SDS011;5277;48.722;8.736;2023-04-06T01:14:09;7.37;;;5.00;;
10458;SDS011;5277;48.722;8.736;2023-04-06T01:16:35;8.47;;;4.97;;
10458;SDS011;5277;48.722;8.736;2023-04-06T01:19:01;8.83;;;5.37;;
10458;SDS011;5277;48.722;8.736;2023-04-06T01:21:32;8.27;;;5.07;;
10458;SDS011;5277;48.722;8.736;2023-04-06T01:23:58;8.00;;;5.00;;
10458;SDS011;5277;48.722;8.736;2023-04-06T01:26:23;9.03;;;5.27;;
10458;SDS011;5277;48.722;8.736;2023-04-06T01:28:49;16.27;;;5.23;;
10458;SDS011;5277;48.722;8.736;2023-04-06T01:31:15;7.03;;;5.07;;
10458;SDS011;5277;48.722;8.736;2023-04-06T01:33:40;9.87;;;5.80;;
10458;SDS011;5277;48.722;8.736;2023-04-06T01:36:06;8.03;;;4.97;;
10458;SDS011;5277;48.722;8.736;2023-04-06T01:38:32;8.60;;;5.57;;
10458;SDS011;5277;48.722;8.736;2023-04-06T01:40:57;8.30;;;5.77;;
10458;SDS011;5277;48.722;8.736;2023-04-06T01:43:23;9.10;;;5.77;;
10458;SDS011;5277;48.722;8.736;2023-04-06T01:45:49;7.23;;;5.17;;
10458;SDS011;5277;48.722;8.736;2023-04-06T01:48:15;8.87;;;5.47;;
10458;SDS011;5277;48.722;8.736;2023-04-06T01:50:41;7.33;;;5.03;;
10458;SDS011;5277;48.722;8.736;2023-04-06T01:53:07;8.00;;;5.40;;
10458;SDS011;5277;48.722;8.736;2023-04-06T01:55:32;10.00;;;5.30;;
10458;SDS011;5277;48.722;8.736;2023-04-06T01:57:58;6.80;;;5.00;;
10458;SDS011;5277;48.722;8.736;2023-04-06T02:00:23;8.20;;;5.17;;
10458;SDS011;5277;48.722;8.736;2023-04-06T02:02:49;6.50;;;5.20;;
10458;SDS011;5277;48.722;8.736;2023-04-06T02:05:15;12.13;;;5.37;;
10458;SDS011;5277;48.722;8.736;2023-04-06T02:07:41;6.67;;;5.03;;
10458;SDS011;5277;48.722;8.736;2023-04-06T02:10:10;7.27;;;4.73;;
10458;SDS011;5277;48.722;8.736;2023-04-06T02:12:37;7.80;;;4.83;;
10458;SDS011;5277;48.722;8.736;2023-04-06T02:15:03;7.03;;;5.43;;
10458;SDS011;5277;48.722;8.736;2023-04-06T02:17:29;8.40;;;5.20;;
10458;SDS011;5277;48.722;8.736;2023-04-06T02:19:55;6.27;;;5.03;;
10458;SDS011;5277;48.722;8.736;2023-04-06T02:22:20;7.30;;;5.10;;
10458;SDS011;5277;48.722;8.736;2023-04-06T02:24:46;8.73;;;5.00;;
10458;SDS011;5277;48.722;8.736;2023-04-06T02:27:13;7.03;;;5.37;;
10458;SDS011;5277;48.722;8.736;2023-04-06T02:29:39;7.90;;;5.27;;
10458;SDS011;5277;48.722;8.736;2023-04-06T02:32:05;7.97;;;5.27;;
10458;SDS011;5277;48.722;8.736;2023-04-06T02:34:31;7.00;;;5.07;;
10458;SDS011;5277;48.722;8.736;2023-04-06T02:36:57;6.60;;;5.10;;
10458;SDS011;5277;48.722;8.736;2023-04-06T02:39:22;6.33;;;4.83;;
10458;SDS011;5277;48.722;8.736;2023-04-06T02:41:48;5.93;;;5.10;;
10458;SDS011;5277;48.722;8.736;2023-04-06T02:44:14;7.27;;;5.20;;
10458;SDS011;5277;48.722;8.736;2023-04-06T02:46:39;8.23;;;5.63;;
10458;SDS011;5277;48.722;8.736;2023-04-06T02:49:05;7.60;;;5.73;;
10458;SDS011;5277;48.722;8.736;2023-04-06T02:51:30;6.67;;;5.10;;
10458;SDS011;5277;48.722;8.736;2023-04-06T02:53:56;8.63;;;5.13;;
10458;SDS011;5277;48.722;8.736;2023-04-06T02:56:22;5.90;;;4.60;;
10458;SDS011;5277;48.722;8.736;2023-04-06T02:58:47;6.47;;;5.17;;
10458;SDS011;5277;48.722;8.736;2023-04-06T03:01:13;7.70;;;5.50;;
10458;SDS011;5277;48.722;8.736;2023-04-06T03:03:39;8.80;;;5.43;;
10458;SDS011;5277;48.722;8.736;2023-04-06T03:06:05;8.90;;;5.50;;
10458;SDS011;5277;48.722;8.736;2023-04-06T03:08:31;6.77;;;5.17;;
10458;SDS011;5277;48.722;8.736;2023-04-06T03:10:56;6.47;;;5.33;;
10458;SDS011;5277;48.722;8.736;2023-04-06T03:13:22;7.70;;;5.50;;
10458;SDS011;5277;48.722;8.736;2023-04-06T03:15:48;8.97;;;6.07;;
10458;SDS011;5277;48.722;8.736;2023-04-06T03:18:13;8.57;;;5.73;;
10458;SDS011;5277;48.722;8.736;2023-04-06T03:20:39;8.57;;;5.40;;
10458;SDS011;5277;48.722;8.736;2023-04-06T03:23:05;7.67;;;5.37;;
10458;SDS011;5277;48.722;8.736;2023-04-06T03:25:31;7.10;;;5.23;;
10458;SDS011;5277;48.722;8.736;2023-04-06T03:27:56;7.37;;;5.40;;
10458;SDS011;5277;48.722;8.736;2023-04-06T03:30:22;9.57;;;6.00;;
10458;SDS011;5277;48.722;8.736;2023-04-06T03:32:47;6.57;;;5.40;;
10458;SDS011;5277;48.722;8.736;2023-04-06T03:35:13;7.17;;;5.70;;
10458;SDS011;5277;48.722;8.736;2023-04-06T03:37:39;10.03;;;6.07;;
10458;SDS011;5277;48.722;8.736;2023-04-06T03:40:05;10.97;;;6.03;;
10458;SDS011;5277;48.722;8.736;2023-04-06T03:42:31;8.80;;;5.80;;
10458;SDS011;5277;48.722;8.736;2023-04-06T03:44:57;8.37;;;5.77;;
10458;SDS011;5277;48.722;8.736;2023-04-06T03:47:23;7.83;;;5.90;;
10458;SDS011;5277;48.722;8.736;2023-04-06T03:49:49;7.90;;;6.00;;
10458;SDS011;5277;48.722;8.736;2023-04-06T03:52:15;8.27;;;5.10;;
10458;SDS011;5277;48.722;8.736;2023-04-06T03:54:40;8.37;;;5.50;;
10458;SDS011;5277;48.722;8.736;2023-04-06T03:57:06;9.00;;;6.13;;
10458;SDS011;5277;48.722;8.736;2023-04-06T03:59:32;8.47;;;5.73;;
10458;SDS011;5277;48.722;8.736;2023-04-06T04:01:57;8.30;;;6.13;;
10458;SDS011;5277;48.722;8.736;2023-04-06T04:04:23;9.30;;;5.87;;
10458;SDS011;5277;48.722;8.736;2023-04-06T04:06:48;9.10;;;6.17;;
10458;SDS011;5277;48.722;8.736;2023-04-06T04:09:14;8.20;;;6.30;;
10458;SDS011;5277;48.722;8.736;2023-04-06T04:11:40;9.23;;;6.40;;
10458;SDS011;5277;48.722;8.736;2023-04-06T04:14:06;9.17;;;6.00;;
10458;SDS011;5277;48.722;8.736;2023-04-06T04:16:31;8.13;;;5.57;;
10458;SDS011;5277;48.722;8.736;2023-04-06T04:18:57;8.87;;;5.93;;
10458;SDS011;5277;48.722;8.736;2023-04-06T04:21:27;8.70;;;5.90;;
10458;SDS011;5277;48.722;8.736;2023-04-06T04:23:55;9.93;;;5.83;;
10458;SDS011;5277;48.722;8.736;2023-04-06T04:26:20;11.27;;;6.13;;
10458;SDS011;5277;48.722;8.736;2023-04-06T04:28:46;8.30;;;5.83;;
10458;SDS011;5277;48.722;8.736;2023-04-06T04:31:12;9.53;;;5.70;;
10458;SDS011;5277;48.722;8.736;2023-04-06T04:33:37;8.37;;;5.90;;
10458;SDS011;5277;48.722;8.736;2023-04-06T04:36:03;8.10;;;6.17;;
10458;SDS011;5277;48.722;8.736;2023-04-06T04:38:29;7.20;;;5.37;;
10458;SDS011;5277;48.722;8.736;2023-04-06T04:40:54;8.13;;;5.30;;
10458;SDS011;5277;48.722;8.736;2023-04-06T04:43:20;8.37;;;5.77;;
10458;SDS011;5277;48.722;8.736;2023-04-06T04:45:46;8.63;;;5.97;;
10458;SDS011;5277;48.722;8.736;2023-04-06T04:48:11;7.90;;;5.83;;
10458;SDS011;5277;48.722;8.736;2023-04-06T04:50:37;8.10;;;5.90;;
10458;SDS011;5277;48.722;8.736;2023-04-06T04:53:03;8.57;;;6.00;;
10458;SDS011;5277;48.722;8.736;2023-04-06T04:55:30;9.23;;;6.27;;
10458;SDS011;5277;48.722;8.736;2023-04-06T04:57:56;9.77;;;6.13;;
10458;SDS011;5277;48.722;8.736;2023-04-06T05:00:22;13.70;;;6.20;;
10458;SDS011;5277;48.722;8.736;2023-04-06T05:02:47;10.23;;;5.73;;
10458;SDS011;5277;48.722;8.736;2023-04-06T05:05:13;10.97;;;5.97;;
10458;SDS011;5277;48.722;8.736;2023-04-06T05:07:39;9.57;;;6.17;;
10458;SDS011;5277;48.722;8.736;2023-04-06T05:10:05;8.53;;;6.20;;
10458;SDS011;5277;48.722;8.736;2023-04-06T05:12:31;9.10;;;6.30;;
10458;SDS011;5277;48.722;8.736;2023-04-06T05:14:57;9.70;;;6.50;;
10458;SDS011;5277;48.722;8.736;2023-04-06T05:17:22;10.07;;;6.57;;
10458;SDS011;5277;48.722;8.736;2023-04-06T05:19:48;10.30;;;6.87;;
10458;SDS011;5277;48.722;8.736;2023-04-06T05:22:14;10.37;;;6.80;;
10458;SDS011;5277;48.722;8.736;2023-04-06T05:24:42;10.80;;;7.13;;
10458;SDS011;5277;48.722;8.736;2023-04-06T05:27:08;8.73;;;6.63;;
10458;SDS011;5277;48.722;8.736;2023-04-06T05:29:34;9.67;;;6.33;;
10458;SDS011;5277;48.722;8.736;2023-04-06T05:32:00;9.43;;;6.37;;
10458;SDS011;5277;48.722;8.736;2023-04-06T05:34:26;8.80;;;6.67;;
10458;SDS011;5277;48.722;8.736;2023-04-06T05:36:51;10.00;;;6.33;;
10458;SDS011;5277;48.722;8.736;2023-04-06T05:39:17;10.10;;;6.80;;
10458;SDS011;5277;48.722;8.736;2023-04-06T05:41:43;11.63;;;6.77;;
10458;SDS011;5277;48.722;8.736;2023-04-06T05:44:08;10.97;;;7.03;;
10458;SDS011;5277;48.722;8.736;2023-04-06T05:46:34;11.80;;;7.30;;
10458;SDS011;5277;48.722;8.736;2023-04-06T05:49:00;10.63;;;7.23;;
10458;SDS011;5277;48.722;8.736;2023-04-06T05:51:25;14.70;;;7.70;;
10458;SDS011;5277;48.722;8.736;2023-04-06T05:53:52;13.60;;;8.83;;
10458;SDS011;5277;48.722;8.736;2023-04-06T05:56:17;12.67;;;8.27;;
10458;SDS011;5277;48.722;8.736;2023-04-06T05:58:43;12.10;;;7.43;;
10458;SDS011;5277;48.722;8.736;2023-04-06T06:01:09;10.47;;;7.27;;
10458;SDS011;5277;48.722;8.736;2023-04-06T06:03:35;10.87;;;6.87;;
10458;SDS011;5277;48.722;8.736;2023-04-06T06:06:01;9.40;;;6.50;;
10458;SDS011;5277;48.722;8.736;2023-04-06T06:08:27;10.10;;;6.57;;
10458;SDS011;5277;48.722;8.736;2023-04-06T06:10:53;11.37;;;6.07;;
10458;SDS011;5277;48.722;8.736;2023-04-06T06:13:19;9.23;;;6.43;;
10458;SDS011;5277;48.722;8.736;2023-04-06T06:15:45;11.03;;;6.60;;
10458;SDS011;5277;48.722;8.736;2023-04-06T06:18:11;9.73;;;6.80;;
10458;SDS011;5277;48.722;8.736;2023-04-06T06:20:37;10.00;;;7.50;;
10458;SDS011;5277;48.722;8.736;2023-04-06T06:23:02;10.97;;;7.03;;
10458;SDS011;5277;48.722;8.736;2023-04-06T06:25:28;9.57;;;6.23;;
10458;SDS011;5277;48.722;8.736;2023-04-06T06:27:55;9.37;;;6.57;;
10458;SDS011;5277;48.722;8.736;2023-04-06T06:30:21;8.43;;;6.33;;
10458;SDS011;5277;48.722;8.736;2023-04-06T06:32:47;7.23;;;5.60;;
10458;SDS011;5277;48.722;8.736;2023-04-06T06:35:13;7.60;;;5.93;;
10458;SDS011;5277;48.722;8.736;2023-04-06T06:37:39;8.83;;;7.00;;
10458;SDS011;5277;48.722;8.736;2023-04-06T06:40:04;8.60;;;5.90;;
10458;SDS011;5277;48.722;8.736;2023-04-06T06:42:30;18.73;;;6.83;;
10458;SDS011;5277;48.722;8.736;2023-04-06T06:44:56;10.17;;;5.97;;
10458;SDS011;5277;48.722;8.736;2023-04-06T06:47:24;7.53;;;5.87;;
10458;SDS011;5277;48.722;8.736;2023-04-06T06:49:51;7.23;;;5.47;;
10458;SDS011;5277;48.722;8.736;2023-04-06T06:52:16;8.00;;;5.83;;
10458;SDS011;5277;48.722;8.736;2023-04-06T06:54:42;12.37;;;5.87;;
10458;SDS011;5277;48.722;8.736;2023-04-06T06:57:08;9.00;;;5.90;;
10458;SDS011;5277;48.722;8.736;2023-04-06T06:59:34;7.17;;;5.80;;
10458;SDS011;5277;48.722;8.736;2023-04-06T07:01:59;9.00;;;6.00;;
10458;SDS011;5277;48.722;8.736;2023-04-06T07:04:25;8.90;;;6.23;;
10458;SDS011;5277;48.722;8.736;2023-04-06T07:06:51;9.27;;;6.17;;
10458;SDS011;5277;48.722;8.736;2023-04-06T07:09:17;10.60;;;5.90;;
10458;SDS011;5277;48.722;8.736;2023-04-06T07:11:43;8.30;;;5.47;;
10458;SDS011;5277;48.722;8.736;2023-04-06T07:14:09;7.13;;;5.43;;
10458;SDS011;5277;48.722;8.736;2023-04-06T07:16:36;7.47;;;5.67;;
10458;SDS011;5277;48.722;8.736;2023-04-06T07:19:02;11.67;;;6.13;;
10458;SDS011;5277;48.722;8.736;2023-04-06T07:21:28;7.83;;;5.20;;
10458;SDS011;5277;48.722;8.736;2023-04-06T07:23:53;7.70;;;5.30;;
10458;SDS011;5277;48.722;8.736;2023-04-06T07:26:19;8.63;;;6.23;;
10458;SDS011;5277;48.722;8.736;2023-04-06T07:28:45;7.27;;;5.43;;
10458;SDS011;5277;48.722;8.736;2023-04-06T07:31:10;7.03;;;5.50;;
10458;SDS011;5277;48.722;8.736;2023-04-06T07:33:36;7.40;;;5.40;;
10458;SDS011;5277;48.722;8.736;2023-04-06T07:36:02;7.87;;;5.37;;
10458;SDS011;5277;48.722;8.736;2023-04-06T07:38:27;7.87;;;5.13;;
10458;SDS011;5277;48.722;8.736;2023-04-06T07:40:53;7.10;;;5.53;;
10458;SDS011;5277;48.722;8.736;2023-04-06T07:43:19;8.07;;;6.10;;
10458;SDS011;5277;48.722;8.736;2023-04-06T07:45:45;10.23;;;5.80;;
10458;SDS011;5277;48.722;8.736;2023-04-06T07:48:10;9.57;;;5.43;;
10458;SDS011;5277;48.722;8.736;2023-04-06T07:50:36;7.90;;;5.50;;
10458;SDS011;5277;48.722;8.736;2023-04-06T07:53:02;10.23;;;6.20;;
10458;SDS011;5277;48.722;8.736;2023-04-06T07:55:27;8.03;;;5.40;;
10458;SDS011;5277;48.722;8.736;2023-04-06T07:57:53;8.53;;;5.67;;
10458;SDS011;5277;48.722;8.736;2023-04-06T08:00:19;8.93;;;5.13;;
10458;SDS011;5277;48.722;8.736;2023-04-06T08:02:45;6.63;;;5.50;;
10458;SDS011;5277;48.722;8.736;2023-04-06T08:05:11;8.37;;;5.40;;
10458;SDS011;5277;48.722;8.736;2023-04-06T08:07:36;7.67;;;5.67;;
10458;SDS011;5277;48.722;8.736;2023-04-06T08:10:02;7.47;;;5.40;;
10458;SDS011;5277;48.722;8.736;2023-04-06T08:12:28;7.83;;;5.73;;
10458;SDS011;5277;48.722;8.736;2023-04-06T08:14:54;9.07;;;6.05;;
10458;SDS011;5277;48.722;8.736;2023-04-06T08:17:20;11.27;;;6.72;;
10458;SDS011;5277;48.722;8.736;2023-04-06T08:19:45;10.40;;;7.17;;
10458;SDS011;5277;48.722;8.736;2023-04-06T08:22:11;9.88;;;6.63;;
10458;SDS011;5277;48.722;8.736;2023-04-06T08:24:37;8.02;;;6.45;;
10458;SDS011;5277;48.722;8.736;2023-04-06T08:27:03;9.85;;;6.93;;
10458;SDS011;5277;48.722;8.736;2023-04-06T08:29:28;11.32;;;7.28;;
10458;SDS011;5277;48.722;8.736;2023-04-06T08:31:54;9.52;;;6.88;;
10458;SDS011;5277;48.722;8.736;2023-04-06T08:34:20;9.23;;;7.03;;
10458;SDS011;5277;48.722;8.736;2023-04-06T08:36:46;10.32;;;7.25;;
10458;SDS011;5277;48.722;8.736;2023-04-06T08:39:12;11.48;;;6.97;;
10458;SDS011;5277;48.722;8.736;2023-04-06T08:41:37;11.15;;;8.00;;
10458;SDS011;5277;48.722;8.736;2023-04-06T08:44:06;10.68;;;6.70;;
10458;SDS011;5277;48.722;8.736;2023-04-06T08:46:32;11.80;;;7.25;;
10458;SDS011;5277;48.722;8.736;2023-04-06T08:48:58;11.52;;;6.55;;
10458;SDS011;5277;48.722;8.736;2023-04-06T08:51:25;11.63;;;6.43;;
10458;SDS011;5277;48.722;8.736;2023-04-06T08:53:52;9.27;;;5.82;;
10458;SDS011;5277;48.722;8.736;2023-04-06T08:56:22;8.73;;;6.03;;
10458;SDS011;5277;48.722;8.736;2023-04-06T08:58:50;8.88;;;5.90;;
10458;SDS011;5277;48.722;8.736;2023-04-06T09:01:17;6.32;;;5.18;;
10458;SDS011;5277;48.722;8.736;2023-04-06T09:03:46;7.18;;;5.70;;
10458;SDS011;5277;48.722;8.736;2023-04-06T09:06:14;9.38;;;6.38;;
10458;SDS011;5277;48.722;8.736;2023-04-06T09:08:40;9.85;;;7.00;;
10458;SDS011;5277;48.722;8.736;2023-04-06T09:11:06;7.55;;;5.97;;
10458;SDS011;5277;48.722;8.736;2023-04-06T09:13:49;9.38;;;6.05;;
10458;SDS011;5277;48.722;8.736;2023-04-06T09:16:16;8.15;;;5.70;;
10458;SDS011;5277;48.722;8.736;2023-04-06T09:18:42;8.82;;;5.97;;
10458;SDS011;5277;48.722;8.736;2023-04-06T09:21:09;9.60;;;6.53;;
10458;SDS011;5277;48.722;8.736;2023-04-06T09:23:35;7.55;;;5.85;;
10458;SDS011;5277;48.722;8.736;2023-04-06T09:26:17;8.15;;;5.90;;
10458;SDS011;5277;48.722;8.736;2023-04-06T09:28:43;10.95;;;5.85;;
10458;SDS011;5277;48.722;8.736;2023-04-06T09:31:14;7.93;;;6.03;;
10458;SDS011;5277;48.722;8.736;2023-04-06T09:33:41;7.80;;;5.97;;
10458;SDS011;5277;48.722;8.736;2023-04-06T09:36:09;7.72;;;5.68;;
10458;SDS011;5277;48.722;8.736;2023-04-06T09:38:38;8.10;;;6.20;;
10458;SDS011;5277;48.722;8.736;2023-04-06T09:41:05;7.32;;;5.55;;
10458;SDS011;5277;48.722;8.736;2023-04-06T09:43:30;6.18;;;5.53;;
10458;SDS011;5277;48.722;8.736;2023-04-06T09:45:56;6.90;;;5.55;;
10458;SDS011;5277;48.722;8.736;2023-04-06T09:48:24;6.60;;;5.78;;
10458;SDS011;5277;48.722;8.736;2023-04-06T09:50:50;7.00;;;5.93;;
10458;SDS011;5277;48.722;8.736;2023-04-06T09:53:24;9.35;;;6.18;;
10458;SDS011;5277;48.722;8.736;2023-04-06T09:55:56;6.95;;;5.82;;
10458;SDS011;5277;48.722;8.736;2023-04-06T09:58:24;6.32;;;5.28;;
10458;SDS011;5277;48.722;8.736;2023-04-06T10:01:09;6.63;;;4.78;;
10458;SDS011;5277;48.722;8.736;2023-04-06T10:06:15;6.90;;;5.15;;
10458;SDS011;5277;48.722;8.736;2023-04-06T10:08:46;9.50;;;5.10;;
10458;SDS011;5277;48.722;8.736;2023-04-06T10:11:14;6.00;;;5.25;;
10458;SDS011;5277;48.722;8.736;2023-04-06T10:13:40;5.05;;;4.32;;
10458;SDS011;5277;48.722;8.736;2023-04-06T10:16:07;6.00;;;4.82;;
10458;SDS011;5277;48.722;8.736;2023-04-06T10:18:33;5.60;;;5.05;;
10458;SDS011;5277;48.722;8.736;2023-04-06T10:26:26;6.30;;;5.38;;
10458;SDS011;5277;48.722;8.736;2023-04-06T10:28:52;5.72;;;5.07;;
10458;SDS011;5277;48.722;8.736;2023-04-06T10:31:25;5.30;;;4.80;;
10458;SDS011;5277;48.722;8.736;2023-04-06T10:33:58;5.30;;;4.80;;
10458;SDS011;5277;48.722;8.736;2023-04-06T10:36:26;6.60;;;5.22;;
10458;SDS011;5277;48.722;8.736;2023-04-06T10:38:54;6.10;;;4.78;;
10458;SDS011;5277;48.722;8.736;2023-04-06T10:41:24;6.15;;;5.18;;
10458;SDS011;5277;48.722;8.736;2023-04-06T10:44:17;6.72;;;5.30;;
10458;SDS011;5277;48.722;8.736;2023-04-06T10:46:53;6.50;;;5.18;;
10458;SDS011;5277;48.722;8.736;2023-04-06T10:49:21;6.35;;;5.40;;
10458;SDS011;5277;48.722;8.736;2023-04-06T10:51:51;5.05;;;4.55;;
10458;SDS011;5277;48.722;8.736;2023-04-06T10:54:19;5.45;;;4.68;;
10458;SDS011;5277;48.722;8.736;2023-04-06T10:56:47;6.00;;;5.30;;
10458;SDS011;5277;48.722;8.736;2023-04-06T10:59:13;5.55;;;5.05;;
10458;SDS011;5277;48.722;8.736;2023-04-06T11:01:44;6.43;;;4.45;;
10458;SDS011;5277;48.722;8.736;2023-04-06T11:04:10;6.53;;;5.30;;
10458;SDS011;5277;48.722;8.736;2023-04-06T11:06:40;5.82;;;5.15;;
10458;SDS011;5277;48.722;8.736;2023-04-06T11:09:06;5.20;;;4.70;;
10458;SDS011;5277;48.722;8.736;2023-04-06T11:11:31;4.97;;;4.57;;
10458;SDS011;5277;48.722;8.736;2023-04-06T11:13:58;5.30;;;4.43;;
10458;SDS011;5277;48.722;8.736;2023-04-06T11:16:26;6.82;;;4.65;;
10458;SDS011;5277;48.722;8.736;2023-04-06T11:19:01;6.90;;;4.40;;
10458;SDS011;5277;48.722;8.736;2023-04-06T11:24:11;5.45;;;4.93;;
10458;SDS011;5277;48.722;8.736;2023-04-06T11:26:39;6.43;;;4.90;;
10458;SDS011;5277;48.722;8.736;2023-04-06T11:29:06;5.40;;;4.65;;
10458;SDS011;5277;48.722;8.736;2023-04-06T11:31:46;8.10;;;4.90;;
10458;SDS011;5277;48.722;8.736;2023-04-06T11:34:17;8.48;;;4.85;;
10458;SDS011;5277;48.722;8.736;2023-04-06T11:36:48;5.18;;;4.68;;
10458;SDS011;5277;48.722;8.736;2023-04-06T11:39:20;6.00;;;4.70;;
10458;SDS011;5277;48.722;8.736;2023-04-06T11:41:47;7.22;;;4.78;;
10458;SDS011;5277;48.722;8.736;2023-04-06T11:44:14;5.07;;;4.53;;
10458;SDS011;5277;48.722;8.736;2023-04-06T11:46:39;5.28;;;4.43;;
10458;SDS011;5277;48.722;8.736;2023-04-06T11:49:05;5.53;;;5.03;;
10458;SDS011;5277;48.722;8.736;2023-04-06T11:51:34;6.25;;;4.50;;
10458;SDS011;5277;48.722;8.736;2023-04-06T11:54:01;4.68;;;4.28;;
10458;SDS011;5277;48.722;8.736;2023-04-06T11:56:29;6.70;;;4.38;;
10458;SDS011;5277;48.722;8.736;2023-04-06T11:58:56;5.60;;;4.72;;
10458;SDS011;5277;48.722;8.736;2023-04-06T12:01:23;5.43;;;4.45;;
10458;SDS011;5277;48.722;8.736;2023-04-06T12:03:50;6.80;;;4.57;;
10458;SDS011;5277;48.722;8.736;2023-04-06T12:06:16;6.65;;;4.65;;
10458;SDS011;5277;48.722;8.736;2023-04-06T12:08:42;5.63;;;4.25;;
10458;SDS011;5277;48.722;8.736;2023-04-06T12:11:12;4.85;;;4.35;;
10458;SDS011;5277;48.722;8.736;2023-04-06T12:13:38;5.82;;;4.05;;
10458;SDS011;5277;48.722;8.736;2023-04-06T12:16:04;6.68;;;4.10;;
10458;SDS011;5277;48.722;8.736;2023-04-06T12:18:30;5.45;;;3.90;;
10458;SDS011;5277;48.722;8.736;2023-04-06T12:20:56;5.57;;;4.75;;
10458;SDS011;5277;48.722;8.736;2023-04-06T12:23:22;4.90;;;4.45;;
10458;SDS011;5277;48.722;8.736;2023-04-06T12:25:47;4.80;;;4.10;;
10458;SDS011;5277;48.722;8.736;2023-04-06T12:28:13;7.47;;;4.90;;
10458;SDS011;5277;48.722;8.736;2023-04-06T12:30:39;5.88;;;4.65;;
10458;SDS011;5277;48.722;8.736;2023-04-06T12:33:06;7.97;;;4.40;;
10458;SDS011;5277;48.722;8.736;2023-04-06T12:35:36;5.38;;;4.57;;
10458;SDS011;5277;48.722;8.736;2023-04-06T12:38:02;7.35;;;4.78;;
10458;SDS011;5277;48.722;8.736;2023-04-06T12:40:27;7.43;;;4.05;;
10458;SDS011;5277;48.722;8.736;2023-04-06T12:42:53;6.20;;;4.80;;
10458;SDS011;5277;48.722;8.736;2023-04-06T12:45:19;5.78;;;4.32;;
10458;SDS011;5277;48.722;8.736;2023-04-06T12:47:44;4.90;;;3.85;;
10458;SDS011;5277;48.722;8.736;2023-04-06T12:50:10;7.28;;;4.75;;
10458;SDS011;5277;48.722;8.736;2023-04-06T12:52:36;5.70;;;4.07;;
10458;SDS011;5277;48.722;8.736;2023-04-06T12:55:02;5.18;;;4.30;;
10458;SDS011;5277;48.722;8.736;2023-04-06T12:57:28;5.93;;;4.53;;
10458;SDS011;5277;48.722;8.736;2023-04-06T12:59:54;5.72;;;4.70;;
10458;SDS011;5277;48.722;8.736;2023-04-06T13:02:20;5.55;;;4.38;;
10458;SDS011;5277;48.722;8.736;2023-04-06T13:04:46;9.05;;;5.25;;
10458;SDS011;5277;48.722;8.736;2023-04-06T13:07:13;6.03;;;4.68;;
10458;SDS011;5277;48.722;8.736;2023-04-06T13:09:39;6.32;;;4.80;;
10458;SDS011;5277;48.722;8.736;2023-04-06T13:12:05;6.07;;;4.57;;
10458;SDS011;5277;48.722;8.736;2023-04-06T13:14:30;6.32;;;4.30;;
10458;SDS011;5277;48.722;8.736;2023-04-06T13:16:56;5.07;;;3.95;;
10458;SDS011;5277;48.722;8.736;2023-04-06T13:19:22;5.28;;;4.15;;
10458;SDS011;5277;48.722;8.736;2023-04-06T13:21:48;4.13;;;3.72;;
10458;SDS011;5277;48.722;8.736;2023-04-06T13:24:14;4.80;;;4.30;;
10458;SDS011;5277;48.722;8.736;2023-04-06T13:26:39;7.15;;;3.67;;
10458;SDS011;5277;48.722;8.736;2023-04-06T13:29:05;7.05;;;4.38;;
10458;SDS011;5277;48.722;8.736;2023-04-06T13:31:31;6.85;;;3.92;;
10458;SDS011;5277;48.722;8.736;2023-04-06T13:33:57;4.50;;;3.67;;
10458;SDS011;5277;48.722;8.736;2023-04-06T13:36:23;5.10;;;3.70;;
10458;SDS011;5277;48.722;8.736;2023-04-06T13:38:49;4.47;;;3.63;;
10458;SDS011;5277;48.722;8.736;2023-04-06T13:41:22;5.32;;;4.00;;
10458;SDS011;5277;48.722;8.736;2023-04-06T13:43:48;4.60;;;3.40;;
10458;SDS011;5277;48.722;8.736;2023-04-06T13:46:14;6.88;;;3.80;;
10458;SDS011;5277;48.722;8.736;2023-04-06T13:48:41;5.50;;;4.00;;
10458;SDS011;5277;48.722;8.736;2023-04-06T13:51:16;4.85;;;3.60;;
10458;SDS011;5277;48.722;8.736;2023-04-06T13:53:41;6.78;;;3.83;;
10458;SDS011;5277;48.722;8.736;2023-04-06T13:56:07;15.25;;;3.42;;
10458;SDS011;5277;48.722;8.736;2023-04-06T13:58:33;5.50;;;2.80;;
10458;SDS011;5277;48.722;8.736;2023-04-06T14:03:34;5.70;;;3.50;;
10458;SDS011;5277;48.722;8.736;2023-04-06T14:06:00;4.72;;;3.78;;
10458;SDS011;5277;48.722;8.736;2023-04-06T14:08:26;4.65;;;3.35;;
10458;SDS011;5277;48.722;8.736;2023-04-06T14:10:51;4.32;;;3.38;;
10458;SDS011;5277;48.722;8.736;2023-04-06T14:13:17;4.88;;;3.55;;
10458;SDS011;5277;48.722;8.736;2023-04-06T14:15:44;6.38;;;3.30;;
10458;SDS011;5277;48.722;8.736;2023-04-06T14:18:09;7.45;;;3.30;;
10458;SDS011;5277;48.722;8.736;2023-04-06T14:20:35;5.78;;;3.55;;
10458;SDS011;5277;48.722;8.736;2023-04-06T14:23:01;6.00;;;3.60;;
10458;SDS011;5277;48.722;8.736;2023-04-06T14:25:27;7.75;;;4.85;;
10458;SDS011;5277;48.722;8.736;2023-04-06T14:27:53;8.02;;;4.93;;
10458;SDS011;5277;48.722;8.736;2023-04-06T14:30:19;5.65;;;3.50;;
10458;SDS011;5277;48.722;8.736;2023-04-06T14:32:44;7.93;;;4.05;;
10458;SDS011;5277;48.722;8.736;2023-04-06T14:35:10;5.13;;;3.45;;
10458;SDS011;5277;48.722;8.736;2023-04-06T14:37:36;5.25;;;3.67;;
10458;SDS011;5277;48.722;8.736;2023-04-06T14:40:02;5.53;;;3.80;;
10458;SDS011;5277;48.722;8.736;2023-04-06T14:42:28;6.10;;;3.60;;
10458;SDS011;5277;48.722;8.736;2023-04-06T14:44:53;5.30;;;3.72;;
10458;SDS011;5277;48.722;8.736;2023-04-06T14:47:19;5.32;;;3.80;;
10458;SDS011;5277;48.722;8.736;2023-04-06T14:49:46;4.07;;;3.42;;
10458;SDS011;5277;48.722;8.736;2023-04-06T14:52:16;4.22;;;3.42;;
10458;SDS011;5277;48.722;8.736;2023-04-06T14:54:41;6.25;;;3.90;;
10458;SDS011;5277;48.722;8.736;2023-04-06T14:57:07;9.68;;;3.60;;
10458;SDS011;5277;48.722;8.736;2023-04-06T14:59:32;7.85;;;3.50;;
10458;SDS011;5277;48.722;8.736;2023-04-06T15:01:58;5.30;;;3.15;;
10458;SDS011;5277;48.722;8.736;2023-04-06T15:04:25;6.10;;;3.42;;
10458;SDS011;5277;48.722;8.736;2023-04-06T15:06:51;7.88;;;3.75;;
10458;SDS011;5277;48.722;8.736;2023-04-06T15:09:16;5.55;;;3.50;;